BO-0009 weather

Saipiru Airport
Cordillera, Santa Cruz Department, Bolivia

Public forecast

Using degrees Celsius for public forecast. Weather courtesy of forecast.io.

Closest aviation weather report (METAR) to Saipiru Airport

Closest report is Camiri Airport, 45.0 nm (83.4 km) SW. Retrieved 2019/10/18 19:00 UTC (38 minutes ago):

SLCA 181900Z 00000KT 4000 VCSH OVC017 18/14 Q1020

Closest aviation forecast (TAF) to Saipiru Airport

Closest forecast is El Trompillo Airport, 95.0 nm (176.0 km) N. Retrieved 2019/10/18 18:00 UTC (2 hours ago):

TAF SLET 181600Z 1818/1918 VRB02KT 8000 SCT020 FEW030CB TX30/1820 TN20/1910Z PROB30 TEMPO 1822/1824 18010G22KT 7000 SHRA BKN017 BKN070 BECMG 1902/1905 18012KT 9999 NSW SCT020 BKN070 BECMG 1915/1918 17010G20KT BKN020 FEW030CB